createdAt,value
2022-11-05T00:01:11.946Z,8.00
2022-11-05T00:06:32.270Z,8.10
2022-11-05T00:12:12.606Z,8.10
2022-11-05T00:17:14.336Z,8.00
2022-11-05T00:22:34.953Z,7.90
2022-11-05T00:27:36.684Z,8.00
2022-11-05T00:32:38.834Z,7.90
2022-11-05T00:37:44.347Z,7.80
2022-11-05T00:43:07.577Z,7.90
2022-11-05T00:48:28.145Z,8.00
2022-11-05T00:53:30.040Z,8.20
2022-11-05T00:58:31.903Z,8.20
2022-11-05T01:03:36.645Z,8.40
2022-11-05T01:08:39.094Z,8.50
2022-11-05T01:13:41.024Z,8.30
2022-11-05T01:18:42.760Z,8.20
2022-11-05T01:23:44.553Z,8.10
2022-11-05T01:28:54.997Z,8.30
2022-11-05T01:33:56.850Z,8.40
2022-11-05T01:38:58.629Z,8.30
2022-11-05T01:44:00.551Z,8.30
2022-11-05T01:49:15.621Z,8.40
2022-11-05T01:54:21.006Z,8.20
2022-11-05T01:59:32.367Z,8.20
2022-11-05T02:04:43.055Z,8.20
2022-11-05T02:10:15.635Z,8.10
2022-11-05T02:15:43.542Z,8.10
2022-11-05T02:21:17.378Z,8.00
2022-11-05T02:26:45.198Z,7.90
2022-11-05T02:31:49.621Z,7.80
2022-11-05T02:37:00.493Z,7.70
2022-11-05T02:42:08.293Z,7.80
2022-11-05T02:47:29.960Z,7.70
2022-11-05T02:52:50.166Z,7.70
2022-11-05T02:57:51.929Z,7.70
2022-11-05T03:02:53.914Z,7.50
2022-11-05T03:08:04.254Z,7.40
2022-11-05T03:13:08.968Z,7.40
2022-11-05T03:18:29.190Z,7.30
2022-11-05T03:23:58.580Z,7.30
2022-11-05T03:29:06.591Z,7.40
2022-11-05T03:34:11.033Z,7.20
2022-11-05T03:39:20.031Z,7.20
2022-11-05T03:44:29.445Z,7.20
2022-11-05T03:49:38.550Z,7.20
2022-11-05T03:54:40.611Z,7.20
2022-11-05T03:59:47.536Z,7.20
2022-11-05T04:04:49.534Z,7.00
2022-11-05T04:10:09.890Z,7.10
2022-11-05T04:15:11.810Z,7.10
2022-11-05T04:20:32.066Z,7.10
2022-11-05T04:25:34.043Z,7.00
2022-11-05T04:30:35.764Z,7.00
2022-11-05T04:35:39.872Z,6.90
2022-11-05T04:40:42.068Z,7.00
2022-11-05T04:45:44.163Z,6.90
2022-11-05T04:50:45.888Z,6.80
2022-11-05T04:55:47.639Z,6.70
2022-11-05T05:00:50.490Z,6.60
2022-11-05T05:05:53.943Z,6.70
2022-11-05T05:10:55.969Z,6.60
2022-11-05T05:15:58.276Z,6.60
2022-11-05T05:21:18.800Z,6.70
2022-11-05T05:26:20.490Z,6.60
2022-11-05T05:31:23.097Z,6.70
2022-11-05T05:36:25.116Z,6.60
2022-11-05T05:41:26.829Z,6.50
2022-11-05T05:46:28.548Z,6.50
2022-11-05T05:51:30.266Z,6.40
2022-11-05T05:56:32.018Z,6.40
2022-11-05T06:01:33.911Z,6.40
2022-11-05T06:06:35.772Z,6.40
2022-11-05T06:11:37.546Z,6.50
2022-11-05T06:16:40.331Z,6.50
2022-11-05T06:21:42.077Z,6.40
2022-11-05T06:26:45.052Z,6.50
2022-11-05T06:31:46.822Z,7.00
2022-11-05T06:36:48.545Z,6.50
2022-11-05T06:42:16.760Z,6.40
2022-11-05T06:47:12.360Z,6.30
2022-11-05T06:52:15.481Z,6.40
2022-11-05T06:57:17.191Z,6.40
2022-11-05T07:02:19.188Z,6.40
2022-11-05T07:07:20.927Z,6.40
2022-11-05T07:12:22.677Z,6.40
2022-11-05T07:17:24.399Z,6.40
2022-11-05T07:22:26.154Z,6.40
2022-11-05T07:27:28.076Z,6.40
2022-11-05T07:32:29.828Z,6.40
2022-11-05T07:37:31.530Z,6.40
2022-11-05T07:42:36.160Z,6.60
2022-11-05T07:47:50.871Z,6.70
2022-11-05T07:52:52.799Z,6.70
2022-11-05T07:57:54.850Z,6.70
2022-11-05T08:03:10.159Z,6.80
2022-11-05T08:08:15.252Z,7.00
2022-11-05T08:13:17.682Z,7.20
2022-11-05T08:18:19.416Z,7.20
2022-11-05T08:23:21.129Z,7.30
2022-11-05T08:28:23.931Z,7.50
2022-11-05T08:33:27.529Z,7.60
2022-11-05T08:38:29.863Z,7.80
2022-11-05T08:43:31.562Z,7.90
2022-11-05T08:48:33.302Z,8.00
2022-11-05T08:53:35.035Z,8.00
2022-11-05T08:58:37.630Z,8.00
2022-11-05T09:03:39.360Z,8.10
2022-11-05T09:08:41.122Z,8.20
2022-11-05T09:13:43.003Z,8.10
2022-11-05T09:18:44.701Z,8.20
2022-11-05T09:23:47.282Z,8.30
2022-11-05T09:28:49.074Z,8.40
2022-11-05T09:33:50.810Z,8.50
2022-11-05T09:38:52.533Z,8.60
2022-11-05T09:43:59.208Z,8.70
2022-11-05T09:49:11.579Z,8.70
2022-11-05T09:54:14.896Z,9.00
2022-11-05T09:59:28.300Z,8.80
2022-11-05T10:04:33.030Z,8.90
2022-11-05T10:09:46.422Z,9.20
2022-11-05T10:14:55.863Z,9.30
2022-11-05T10:20:23.642Z,9.40
2022-11-05T10:25:30.850Z,9.40
2022-11-05T10:30:33.099Z,9.50
2022-11-05T10:35:47.497Z,9.60
2022-11-05T10:41:06.056Z,9.50
2022-11-05T10:46:26.805Z,9.70
2022-11-05T10:51:29.954Z,9.80
2022-11-05T10:56:36.093Z,10.00
2022-11-05T11:01:38.120Z,10.10
2022-11-05T11:06:47.997Z,10.40
2022-11-05T11:11:59.432Z,10.60
2022-11-05T11:17:27.944Z,10.80
2022-11-05T11:22:30.057Z,11.10
2022-11-05T11:27:34.629Z,11.30
2022-11-05T11:32:39.345Z,11.60
2022-11-05T11:37:42.175Z,11.70
2022-11-05T11:43:06.521Z,11.90
2022-11-05T11:48:16.888Z,11.80
2022-11-05T11:53:29.113Z,11.80
2022-11-05T11:58:52.850Z,11.90
2022-11-05T12:04:01.437Z,11.90
2022-11-05T12:09:30.950Z,11.90
2022-11-05T12:14:56.850Z,12.00
2022-11-05T12:20:31.108Z,12.20
2022-11-05T12:26:09.571Z,12.20
2022-11-05T12:31:14.022Z,12.00
2022-11-05T12:36:33.502Z,11.90
2022-11-05T12:41:46.060Z,11.90
2022-11-05T12:47:09.394Z,11.80
2022-11-05T12:52:20.127Z,11.70
2022-11-05T12:57:23.186Z,11.80
2022-11-05T13:02:53.831Z,11.90
2022-11-05T13:08:24.366Z,12.00
2022-11-05T13:13:48.241Z,12.10
2022-11-05T13:19:03.961Z,12.10
2022-11-05T13:24:16.697Z,12.00
2022-11-05T13:29:41.832Z,12.40
2022-11-05T13:34:43.728Z,12.30
2022-11-05T13:39:45.454Z,12.20
2022-11-05T13:45:02.266Z,12.30
2022-11-05T13:50:15.703Z,12.30
2022-11-05T13:55:36.644Z,12.30
2022-11-05T14:01:01.378Z,12.30
2022-11-05T14:06:06.664Z,12.40
2022-11-05T14:11:29.067Z,12.40
2022-11-05T14:17:09.046Z,12.40
2022-11-05T14:22:43.639Z,12.30
2022-11-05T14:27:46.644Z,12.20
2022-11-05T14:32:50.712Z,12.20
2022-11-05T14:37:54.797Z,12.20
2022-11-05T14:43:00.576Z,12.10
2022-11-05T14:48:22.501Z,12.10
2022-11-05T14:53:36.855Z,12.00
2022-11-05T14:58:40.748Z,12.00
2022-11-05T15:03:46.259Z,12.00
2022-11-05T15:08:48.667Z,11.90
2022-11-05T15:14:08.317Z,11.80
2022-11-05T15:19:29.359Z,11.80
2022-11-05T15:24:31.813Z,11.70
2022-11-05T15:29:33.880Z,11.60
2022-11-05T15:34:35.880Z,11.60
2022-11-05T15:39:44.060Z,11.60
2022-11-05T15:44:48.604Z,11.50
2022-11-05T15:50:02.055Z,11.50
2022-11-05T15:55:24.357Z,11.40
2022-11-05T16:00:30.401Z,11.40
2022-11-05T16:05:35.388Z,11.30
2022-11-05T16:10:38.726Z,11.40
2022-11-05T16:15:57.188Z,11.20
2022-11-05T16:21:14.547Z,11.20
2022-11-05T16:27:00.421Z,11.20
2022-11-05T16:31:55.306Z,11.10
2022-11-05T16:36:58.974Z,11.00
2022-11-05T16:42:00.666Z,10.90
2022-11-05T16:47:02.371Z,10.90
2022-11-05T16:52:08.876Z,10.90
2022-11-05T16:57:27.052Z,10.80
2022-11-05T17:02:28.980Z,10.80
2022-11-05T17:07:30.785Z,10.90
2022-11-05T17:12:32.936Z,10.70
2022-11-05T17:17:34.644Z,10.70
2022-11-05T17:22:36.504Z,10.70
2022-11-05T17:27:38.253Z,10.60
2022-11-05T17:32:40.087Z,10.60
2022-11-05T17:37:41.949Z,10.50
2022-11-05T17:42:44.267Z,10.40
2022-11-05T17:47:47.200Z,10.50
2022-11-05T17:52:48.949Z,10.40
2022-11-05T17:57:51.990Z,10.50
2022-11-05T18:02:54.802Z,10.40
2022-11-05T18:07:57.511Z,10.50
2022-11-05T18:12:59.365Z,10.40
2022-11-05T18:18:01.373Z,10.40
2022-11-05T18:23:03.308Z,10.40
2022-11-05T18:28:05.308Z,10.60
2022-11-05T18:33:07.329Z,10.40
2022-11-05T18:38:09.806Z,10.50
2022-11-05T18:43:11.991Z,10.50
2022-11-05T18:48:14.413Z,10.50
2022-11-05T18:53:16.921Z,10.40
2022-11-05T18:58:18.829Z,10.40
2022-11-05T19:03:20.541Z,10.40
2022-11-05T19:08:22.298Z,10.40
2022-11-05T19:13:24.083Z,10.40
2022-11-05T19:18:26.356Z,10.40
2022-11-05T19:23:28.208Z,10.40
2022-11-05T19:28:30.229Z,10.50
2022-11-05T19:33:32.241Z,10.40
2022-11-05T19:38:35.568Z,10.50
2022-11-05T19:43:40.563Z,10.50
2022-11-05T19:48:43.610Z,10.50
2022-11-05T19:53:45.797Z,10.50
2022-11-05T19:58:47.967Z,10.50
2022-11-05T20:03:50.263Z,10.50
2022-11-05T20:09:19.940Z,10.50
2022-11-05T20:14:14.715Z,10.40
2022-11-05T20:19:18.984Z,10.40
2022-11-05T20:24:24.717Z,10.40
2022-11-05T20:29:34.743Z,10.30
2022-11-05T20:34:37.420Z,10.30
2022-11-05T20:39:39.280Z,10.20
2022-11-05T20:44:41.296Z,10.20
2022-11-05T20:49:43.166Z,10.20
2022-11-05T20:54:45.206Z,10.10
2022-11-05T20:59:47.077Z,10.10
2022-11-05T21:04:49.128Z,10.10
2022-11-05T21:09:51.055Z,10.10
2022-11-05T21:14:53.048Z,10.20
2022-11-05T21:19:54.765Z,10.10
2022-11-05T21:24:59.604Z,10.10
2022-11-05T21:30:01.328Z,10.10
2022-11-05T21:35:03.473Z,10.10
2022-11-05T21:40:05.510Z,10.00
2022-11-05T21:45:07.686Z,10.00
2022-11-05T21:50:09.426Z,9.90
2022-11-05T21:55:30.950Z,10.00
2022-11-05T22:00:32.735Z,9.90
2022-11-05T22:05:34.664Z,9.90
2022-11-05T22:10:36.445Z,9.90
2022-11-05T22:15:38.338Z,9.80
2022-11-05T22:20:40.137Z,9.80
2022-11-05T22:25:42.050Z,9.80
2022-11-05T22:30:43.788Z,9.70
2022-11-05T22:35:45.578Z,9.70
2022-11-05T22:40:47.356Z,9.70
2022-11-05T22:45:49.241Z,9.70
2022-11-05T22:50:51.001Z,9.70
2022-11-05T22:55:52.708Z,9.70
2022-11-05T23:00:54.418Z,9.70
2022-11-05T23:06:27.897Z,9.60
2022-11-05T23:11:35.598Z,9.60
2022-11-05T23:16:56.308Z,9.70
2022-11-05T23:22:16.665Z,9.60
2022-11-05T23:27:18.362Z,9.70
2022-11-05T23:32:25.824Z,9.80
2022-11-05T23:37:48.514Z,9.80
2022-11-05T23:43:09.317Z,9.70
2022-11-05T23:48:18.884Z,9.70
2022-11-05T23:53:20.777Z,9.80
2022-11-05T23:58:22.650Z,9.70
